createdAt,value
2022-11-08T00:01:09.510Z,17.55
2022-11-08T00:06:29.921Z,18.42
2022-11-08T00:11:50.549Z,17.63
2022-11-08T00:16:52.448Z,18.35
2022-11-08T00:21:54.631Z,17.88
2022-11-08T00:26:56.558Z,18.73
2022-11-08T00:31:58.585Z,17.88
2022-11-08T00:37:01.060Z,17.55
2022-11-08T00:42:03.143Z,17.10
2022-11-08T00:47:05.684Z,17.35
2022-11-08T00:52:07.578Z,17.48
2022-11-08T00:57:09.413Z,16.33
2022-11-08T01:02:11.412Z,18.98
2022-11-08T01:07:13.261Z,19.00
2022-11-08T01:12:17.576Z,17.83
2022-11-08T01:17:19.500Z,18.23
2022-11-08T01:22:21.535Z,21.10
2022-11-08T01:27:23.372Z,20.88
2022-11-08T01:32:25.269Z,34.75
2022-11-08T01:37:27.213Z,22.38
2022-11-08T01:42:33.306Z,20.30
2022-11-08T01:47:38.523Z,21.25
2022-11-08T01:52:47.564Z,21.67
2022-11-08T01:58:01.408Z,21.92
2022-11-08T02:08:22.167Z,21.60
2022-11-08T02:13:27.178Z,19.10
2022-11-08T02:18:31.287Z,19.48
2022-11-08T02:23:45.661Z,19.45
2022-11-08T02:28:48.679Z,19.52
2022-11-08T02:33:50.862Z,19.02
2022-11-08T02:38:57.985Z,17.65
2022-11-08T02:43:59.947Z,18.98
2022-11-08T02:49:01.789Z,19.45
2022-11-08T02:54:03.751Z,18.45
2022-11-08T02:59:06.228Z,19.33
2022-11-08T03:04:08.487Z,21.48
2022-11-08T03:09:11.117Z,18.15
2022-11-08T03:14:13.195Z,18.23
2022-11-08T03:19:15.393Z,17.63
2022-11-08T03:24:17.550Z,18.00
2022-11-08T03:29:19.509Z,17.50
2022-11-08T03:34:21.450Z,17.08
2022-11-08T03:39:23.302Z,17.65
2022-11-08T03:44:25.222Z,16.33
2022-11-08T03:49:27.624Z,16.05
2022-11-08T03:54:29.528Z,17.33
2022-11-08T03:59:31.381Z,16.50
2022-11-08T04:04:33.397Z,17.08
2022-11-08T04:09:35.292Z,19.33
2022-11-08T04:14:55.677Z,17.75
2022-11-08T04:20:15.951Z,18.85
2022-11-08T04:25:18.092Z,20.48
2022-11-08T04:30:20.194Z,20.17
2022-11-08T04:35:22.088Z,17.17
2022-11-08T04:40:23.964Z,16.67
2022-11-08T04:45:25.968Z,15.90
2022-11-08T04:50:28.256Z,16.02
2022-11-08T04:55:30.307Z,14.98
2022-11-08T05:00:32.168Z,16.10
2022-11-08T05:05:34.075Z,16.02
2022-11-08T05:10:35.931Z,15.70
2022-11-08T05:15:37.949Z,17.02
2022-11-08T05:20:58.504Z,16.27
2022-11-08T05:26:00.635Z,16.77
2022-11-08T05:31:03.407Z,17.05
2022-11-08T05:36:07.924Z,17.17
2022-11-08T05:41:21.095Z,16.13
2022-11-08T05:46:23.678Z,16.52
2022-11-08T05:51:25.756Z,17.48
2022-11-08T05:56:27.763Z,16.25
2022-11-08T06:01:29.727Z,17.77
2022-11-08T06:06:31.683Z,17.67
2022-11-08T06:11:40.049Z,17.17
2022-11-08T06:16:48.684Z,17.38
2022-11-08T06:21:50.592Z,20.88
2022-11-08T06:26:52.748Z,16.73
2022-11-08T06:31:54.699Z,17.52
2022-11-08T06:36:58.788Z,16.98
2022-11-08T06:42:01.192Z,19.15
2022-11-08T06:47:03.333Z,18.27
2022-11-08T06:52:05.305Z,16.33
2022-11-08T06:57:07.460Z,17.00
2022-11-08T07:02:11.114Z,15.88
2022-11-08T07:07:13.149Z,17.02
2022-11-08T07:12:14.995Z,19.85
2022-11-08T07:17:17.102Z,17.92
2022-11-08T07:22:19.021Z,17.05
2022-11-08T07:27:21.064Z,15.27
2022-11-08T07:32:23.083Z,14.35
2022-11-08T07:37:24.976Z,14.52
2022-11-08T07:42:34.298Z,43.33
2022-11-08T07:47:57.177Z,17.17
2022-11-08T07:52:59.321Z,14.43
2022-11-08T07:58:02.046Z,15.18
2022-11-08T08:03:06.394Z,13.40
2022-11-08T08:08:08.953Z,14.07
2022-11-08T08:13:11.928Z,13.65
2022-11-08T08:18:13.914Z,11.90
2022-11-08T08:23:16.202Z,11.35
2022-11-08T08:28:19.011Z,12.43
2022-11-08T08:33:29.419Z,18.42
2022-11-08T08:38:33.369Z,13.00
2022-11-08T08:43:35.251Z,12.70
2022-11-08T08:48:38.872Z,13.57
2022-11-08T08:53:40.984Z,11.85
2022-11-08T08:58:43.367Z,11.55
2022-11-08T09:03:45.505Z,11.00
2022-11-08T09:08:47.584Z,10.38
2022-11-08T09:13:49.848Z,13.05
2022-11-08T09:18:51.817Z,14.38
2022-11-08T09:23:53.890Z,10.13
2022-11-08T09:28:56.070Z,11.07
2022-11-08T09:33:58.324Z,10.98
2022-11-08T09:39:00.256Z,10.90
2022-11-08T09:44:40.584Z,11.90
2022-11-08T09:49:49.159Z,12.38
2022-11-08T09:54:55.535Z,10.55
2022-11-08T10:00:05.309Z,9.65
2022-11-08T10:05:13.519Z,9.90
2022-11-08T10:10:47.292Z,9.55
2022-11-08T10:16:30.326Z,9.82
2022-11-08T10:21:57.131Z,8.13
2022-11-08T10:27:00.365Z,8.05
2022-11-08T10:32:25.245Z,8.32
2022-11-08T10:37:28.038Z,8.75
2022-11-08T10:42:57.838Z,7.95
2022-11-08T10:48:00.145Z,7.68
2022-11-08T10:53:04.035Z,8.23
2022-11-08T10:58:30.982Z,7.03
2022-11-08T11:03:39.553Z,6.35
2022-11-08T11:08:50.767Z,6.80
2022-11-08T11:14:16.617Z,6.65
2022-11-08T11:19:26.346Z,7.28
2022-11-08T11:24:28.579Z,6.35
2022-11-08T11:29:35.984Z,5.05
2022-11-08T11:34:48.776Z,5.53
2022-11-08T11:40:29.816Z,4.85
2022-11-08T11:45:46.897Z,4.57
2022-11-08T11:50:50.205Z,4.43
2022-11-08T11:56:10.753Z,5.85
2022-11-08T12:01:35.085Z,4.32
2022-11-08T12:06:49.639Z,3.90
2022-11-08T12:12:14.909Z,5.15
2022-11-08T12:17:50.502Z,3.80
2022-11-08T12:23:19.728Z,4.15
2022-11-08T12:28:32.739Z,3.70
2022-11-08T12:33:43.535Z,5.33
2022-11-08T12:39:23.622Z,4.55
2022-11-08T12:44:45.115Z,3.75
2022-11-08T12:50:02.108Z,3.50
2022-11-08T12:55:09.964Z,3.50
2022-11-08T13:00:18.569Z,3.50
2022-11-08T13:05:25.723Z,3.95
2022-11-08T13:10:48.221Z,3.20
2022-11-08T13:16:16.477Z,3.90
2022-11-08T13:21:38.950Z,4.10
2022-11-08T13:26:42.592Z,3.47
2022-11-08T13:37:18.592Z,5.93
2022-11-08T13:42:20.591Z,5.78
2022-11-08T13:47:34.646Z,5.18
2022-11-08T13:52:47.069Z,4.57
2022-11-08T13:57:59.359Z,5.95
2022-11-08T14:03:01.339Z,5.82
2022-11-08T14:08:24.606Z,13.07
2022-11-08T14:13:37.571Z,7.88
2022-11-08T14:18:39.517Z,5.73
2022-11-08T14:23:42.472Z,6.32
2022-11-08T14:28:47.506Z,6.80
2022-11-08T14:33:49.460Z,6.30
2022-11-08T14:39:15.943Z,5.70
2022-11-08T14:44:19.011Z,41.08
2022-11-08T14:49:22.738Z,9.70
2022-11-08T14:59:31.622Z,9.60
2022-11-08T15:04:39.904Z,10.20
2022-11-08T15:09:41.896Z,11.40
2022-11-08T15:14:52.288Z,50.20
2022-11-08T15:20:06.881Z,34.85
2022-11-08T15:25:14.734Z,28.30
2022-11-08T15:30:26.356Z,26.10
2022-11-08T15:35:38.658Z,28.27
2022-11-08T15:40:50.172Z,27.02
2022-11-08T15:45:55.119Z,22.05
2022-11-08T15:50:57.768Z,64.65
2022-11-08T15:56:04.695Z,68.18
2022-11-08T16:01:06.866Z,43.33
2022-11-08T16:06:12.156Z,42.40
2022-11-08T16:11:20.816Z,38.53
2022-11-08T16:16:22.770Z,46.50
2022-11-08T16:21:24.817Z,32.50
2022-11-08T16:26:26.754Z,37.83
2022-11-08T16:31:28.630Z,34.95
2022-11-08T16:36:30.794Z,29.65
2022-11-08T16:41:32.671Z,32.17
2022-11-08T16:46:35.032Z,47.78
2022-11-08T16:51:37.172Z,42.80
2022-11-08T16:56:39.052Z,35.33
2022-11-08T17:01:41.329Z,40.90
2022-11-08T17:06:43.575Z,42.15
2022-11-08T17:11:45.597Z,46.25
2022-11-08T17:16:48.558Z,42.88
2022-11-08T17:21:50.502Z,39.33
2022-11-08T17:26:53.680Z,32.95
2022-11-08T17:31:55.800Z,28.75
2022-11-08T17:36:57.730Z,25.15
2022-11-08T17:42:00.139Z,28.27
2022-11-08T17:47:02.245Z,34.28
2022-11-08T17:52:04.184Z,46.08
2022-11-08T17:57:06.347Z,33.47
2022-11-08T18:02:09.844Z,25.73
2022-11-08T18:07:12.100Z,23.45
2022-11-08T18:12:14.271Z,23.23
2022-11-08T18:17:16.133Z,25.83
2022-11-08T18:22:19.544Z,27.48
2022-11-08T18:27:21.484Z,41.75
2022-11-08T18:32:23.396Z,39.88
2022-11-08T18:37:25.767Z,29.10
2022-11-08T18:42:28.089Z,28.48
2022-11-08T18:47:32.249Z,32.05
2022-11-08T18:52:34.132Z,27.48
2022-11-08T18:57:37.556Z,23.63
2022-11-08T19:02:39.840Z,23.05
2022-11-08T19:07:41.765Z,31.50
2022-11-08T19:12:43.701Z,35.83
2022-11-08T19:17:49.893Z,31.88
2022-11-08T19:22:55.452Z,32.00
2022-11-08T19:27:58.793Z,32.03
2022-11-08T19:33:00.748Z,41.47
2022-11-08T19:38:02.692Z,45.72
2022-11-08T19:43:04.567Z,45.10
2022-11-08T19:48:07.150Z,39.65
2022-11-08T19:53:09.607Z,39.47
2022-11-08T19:58:11.520Z,33.97
2022-11-08T20:03:19.573Z,33.80
2022-11-08T20:08:22.102Z,35.87
2022-11-08T20:13:25.956Z,32.37
2022-11-08T20:18:29.644Z,37.55
2022-11-08T20:23:31.844Z,34.10
2022-11-08T20:28:34.435Z,33.78
2022-11-08T20:33:39.608Z,36.67
2022-11-08T20:38:42.005Z,53.70
2022-11-08T20:43:45.777Z,37.33
2022-11-08T20:48:51.905Z,38.92
2022-11-08T20:53:54.277Z,40.10
2022-11-08T20:58:56.875Z,35.78
2022-11-08T21:03:59.252Z,33.05
2022-11-08T21:09:09.877Z,34.60
2022-11-08T21:14:18.740Z,32.72
2022-11-08T21:19:21.568Z,39.05
2022-11-08T21:24:23.967Z,63.00
2022-11-08T21:29:26.016Z,40.92
2022-11-08T21:34:32.445Z,35.63
2022-11-08T21:39:34.657Z,36.42
2022-11-08T21:44:36.753Z,34.75
2022-11-08T21:49:38.858Z,31.80
2022-11-08T21:54:40.919Z,31.77
2022-11-08T21:59:42.939Z,61.22
2022-11-08T22:04:44.834Z,53.70
2022-11-08T22:09:47.164Z,41.75
2022-11-08T22:14:51.387Z,36.53
2022-11-08T22:19:54.009Z,37.67
2022-11-08T22:24:55.920Z,56.72
2022-11-08T22:29:57.870Z,42.55
2022-11-08T22:34:59.756Z,39.38
2022-11-08T22:40:01.795Z,38.80
2022-11-08T22:45:04.010Z,30.65
2022-11-08T22:50:06.402Z,32.22
2022-11-08T22:55:08.930Z,30.15
2022-11-08T23:00:12.648Z,30.92
2022-11-08T23:10:16.689Z,31.52
2022-11-08T23:15:37.040Z,50.53
2022-11-08T23:20:57.379Z,42.17
2022-11-08T23:25:59.396Z,32.53
2022-11-08T23:31:22.915Z,28.13
2022-11-08T23:36:28.389Z,28.77
2022-11-08T23:41:48.759Z,28.40
2022-11-08T23:47:01.260Z,31.27
2022-11-08T23:52:03.716Z,29.60
2022-11-08T23:57:05.612Z,29.05
